Cassopolis, Michigan
Current Conditions -  °F | °C
As of 4:34 PM on Friday 28 Nov 2014 (Local Time) from KHAI Reporting Station
Overcast Overcast  
Wind Chill: 21°   Ceiling: 9500
Heat Index: 28°   Visibility: 10mi
Dew Point: 19°   Wind: 7mph
Humidity: 71%   Direction: 150°SSE
Pressure: 30.08"   Gusts: NA
Location:  41.91°N, 86.01°W
Report Text: KHAI 282134Z AUTO 15006KT 10SM BKN095 OVC120 M02/M07 A3008 RMK AO2 T10231070
Loading
Personal Weather Stations






























Interactive Weather Map New forecast layout! Learn more

10-Day Weather Forecast

Advertisements
Track Severe Weather on mobile